^^
Station Historical Data
Daily Summary for July 3, 2017 Units:  Metric    English   Both
« Previous Day
Next Day »
Daily Weekly Monthly Yearly Custom
  High: Low: Average:
Temperature: 12.7 °C 3.3 °C 6.8 °C
Dew Point: 4.8 °C -2 °C 2.2 °C
Humidity: 89% 38% 75%
Wind Speed: 1.4km/h 0km/h 0km/h
Wind Gust: 9.7km/h - -
Wind- - SSW
Pressure: 1025.3 hPa 1021.9 hPa -
Precipitation: 0 mm    
Historical Graphs
 
 
Tabular Data for July 3, 2017
Time Temperature Dew Point Pressure Wind Wind Speed Wind Gust Humidity Rainfall Rate (Hourly) solar Conditions
00:10 7.8 °C 3.6 °C 1022.9 hPa Calm     75% 0 mm 0.0 W/m2
00:15 7.5 °C 3.4 °C 1023.2 hPa Calm     75% 0 mm 0.0 W/m2
00:20 7.2 °C 3.4 °C 1022.9 hPa Calm     77% 0 mm 0.0 W/m2
00:25 7 °C 3.4 °C 1022.9 hPa Calm     78% 0 mm 0.0 W/m2
00:30 7.1 °C 3.9 °C 1022.9 hPa Calm     80% 0 mm 0.0 W/m2
00:45 7.3 °C 4.1 °C 1022.9 hPa Calm     80% 0 mm 0.0 W/m2
00:51 8.2 °C 4.8 °C 1022.9 hPa Calm     79% 0 mm 0.0 W/m2
00:56 8.2 °C 4.4 °C 1023.2 hPa Calm     77% 0 mm 0.0 W/m2
01:01 7.7 °C 3.7 °C 1023.2 hPa Calm     76% 0 mm 0.0 W/m2
01:06 7.5 °C 3.7 °C 1023.2 hPa Calm     77% 0 mm 0.0 W/m2
01:16 7.3 °C 4.1 °C 1023.2 hPa Calm     80% 0 mm 0.0 W/m2
01:21 7.4 °C 3.8 °C 1022.9 hPa Calm     78% 0 mm 0.0 W/m2
01:27 7.2 °C 3.8 °C 1022.9 hPa Calm     79% 0 mm 0.0 W/m2
01:32 7.1 °C 3.7 °C 1022.9 hPa Calm     79% 0 mm 0.0 W/m2
01:37 6.9 °C 3.7 °C 1022.9 hPa Calm     80% 0 mm 0.0 W/m2
01:42 6.9 °C 3.9 °C 1022.9 hPa Calm     81% 0 mm 0.0 W/m2
01:47 7 °C 3.6 °C 1022.9 hPa Calm     79% 0 mm 0.0 W/m2
01:52 6.8 °C 3.4 °C 1022.9 hPa Calm     79% 0 mm 0.0 W/m2
01:58 6.6 °C 3.6 °C 1022.9 hPa Calm     81% 0 mm 0.0 W/m2
02:08 6.5 °C 3.6 °C 1022.6 hPa Calm     82% 0 mm 0.0 W/m2
02:13 6.4 °C 3.6 °C 1022.6 hPa Calm     82% 0 mm 0.0 W/m2
02:18 6.3 °C 3.5 °C 1022.6 hPa Calm     82% 0 mm 0.0 W/m2
02:23 6.2 °C 3.2 °C 1022.6 hPa Calm     81% 0 mm 0.0 W/m2
02:28 6 °C 3 °C 1022.6 hPa Calm     81% 0 mm 0.0 W/m2
02:33 5.8 °C 3 °C 1022.6 hPa Calm     82% 0 mm 0.0 W/m2
02:39 5.7 °C 3 °C 1022.6 hPa Calm     83% 0 mm 0.0 W/m2
02:44 5.6 °C 3.1 °C 1022.6 hPa Calm     84% 0 mm 0.0 W/m2
02:49 5.6 °C 3.3 °C 1022.6 hPa Calm     85% 0 mm 0.0 W/m2
02:54 5.6 °C 3.3 °C 1022.6 hPa Calm     85% 0 mm 0.0 W/m2
03:00 5.6 °C 3.1 °C 1022.6 hPa Calm     84% 0 mm 0.0 W/m2
03:05 5.5 °C 3.2 °C 1022.6 hPa Calm     85% 0 mm 0.0 W/m2
03:10 5.3 °C 2.6 °C 1022.6 hPa Calm     83% 0 mm 0.0 W/m2
03:15 5.1 °C 2.5 °C 1022.6 hPa Calm     83% 0 mm 0.0 W/m2
03:21 4.9 °C 2.4 °C 1022.6 hPa Calm     84% 0 mm 0.0 W/m2
03:26 4.8 °C 2.3 °C 1022.9 hPa Calm     84% 0 mm 0.0 W/m2
03:31 4.7 °C 2.4 °C 1022.6 hPa Calm     85% 0 mm 0.0 W/m2
03:36 4.6 °C 2.3 °C 1022.6 hPa Calm     85% 0 mm 0.0 W/m2
03:41 4.5 °C 2.2 °C 1022.6 hPa Calm     85% 0 mm 0.0 W/m2
03:46 4.3 °C 2 °C 1022.9 hPa Calm     85% 0 mm 0.0 W/m2
03:51 4.2 °C 1.9 °C 1022.9 hPa Calm     85% 0 mm 0.0 W/m2
03:56 4.1 °C 1.8 °C 1022.9 hPa Calm     85% 0 mm 0.0 W/m2
04:01 4 °C 1.9 °C 1022.9 hPa Calm     86% 0 mm 0.0 W/m2
04:07 3.9 °C 1.8 °C 1022.9 hPa Calm     86% 0 mm 0.0 W/m2
04:12 3.8 °C 1.7 °C 1022.9 hPa Calm     86% 0 mm 0.0 W/m2
04:17 3.7 °C 1.6 °C 1022.6 hPa Calm     86% 0 mm 0.0 W/m2
04:22 3.6 °C 1.3 °C 1022.9 hPa Calm     85% 0 mm 0.0 W/m2
04:27 3.4 °C 1.3 °C 1022.9 hPa Calm     86% 0 mm 0.0 W/m2
04:32 3.4 °C 1.4 °C 1022.9 hPa Calm     87% 0 mm 0.0 W/m2
04:37 3.3 °C 1.3 °C 1022.9 hPa Calm     87% 0 mm 0.0 W/m2
04:43 3.3 °C 1.3 °C 1022.9 hPa Calm     87% 0 mm 0.0 W/m2
04:48 3.3 °C 1.5 °C 1022.9 hPa Calm     88% 0 mm 0.0 W/m2
04:54 3.4 °C 1.8 °C 1022.9 hPa Calm     89% 0 mm 0.0 W/m2
04:59 3.6 °C 2 °C 1022.9 hPa Calm     89% 0 mm 0.0 W/m2
05:04 3.6 °C 2 °C 1022.9 hPa Calm     89% 0 mm 0.0 W/m2
05:09 3.8 °C 2.2 °C 1022.9 hPa Calm     89% 0 mm 0.0 W/m2
05:14 3.9 °C 2.3 °C 1022.9 hPa Calm     89% 0 mm 0.0 W/m2
05:19 3.9 °C 2.3 °C 1022.9 hPa Calm     89% 0 mm 0.0 W/m2
05:25 3.9 °C 2.1 °C 1022.9 hPa Calm     88% 0 mm 0.0 W/m2
05:30 3.8 °C 1.8 °C 1022.9 hPa Calm     87% 0 mm 0.0 W/m2
05:35 3.6 °C 1.6 °C 1022.9 hPa Calm     87% 0 mm 0.0 W/m2
05:40 3.6 °C 1.8 °C 1022.9 hPa Calm     88% 0 mm 0.0 W/m2
05:45 3.7 °C 2.1 °C 1022.9 hPa Calm     89% 0 mm 0.0 W/m2
05:51 3.8 °C 2 °C 1022.9 hPa Calm     88% 0 mm 0.0 W/m2
05:56 3.9 °C 2.1 °C 1022.9 hPa Calm     88% 0 mm 0.0 W/m2
06:00 4.1 °C 2.3 °C 1023.2 hPa Calm     88% 0 mm 0.0 W/m2
06:08 4.2 °C 2.2 °C 1023.2 hPa Calm     87% 0 mm 0.0 W/m2
06:16 4.2 °C 2.1 °C 1023.2 hPa Calm     86% 0 mm 0.0 W/m2
06:37 4.4 °C 2.4 °C 1023.2 hPa Calm     87% 0 mm 0.0 W/m2
06:51 5.2 °C 2.7 °C 1023.6 hPa Calm     84% 0 mm 7.0 W/m2
07:01 5.3 °C 2.5 °C 1023.6 hPa Calm     82% 0 mm 11.0 W/m2
07:07 5.3 °C 2.5 °C 1023.9 hPa Calm     82% 0 mm 12.0 W/m2
07:28 5.4 °C 2.6 °C 1023.9 hPa Calm     82% 0 mm 30.0 W/m2
07:38 7.5 °C 3.5 °C 1024.3 hPa Calm     76% 0 mm 114.0 W/m2
07:53 9.1 °C 3.9 °C 1024.6 hPa Calm     70% 0 mm 167.0 W/m2
08:08 10.1 °C 4.5 °C 1024.6 hPa Calm     68% 0 mm 227.0 W/m2
08:29 10.7 °C 4.2 °C 1024.9 hPa Calm     64% 0 mm 269.0 W/m2
08:43 11.4 °C 4.4 °C 1024.9 hPa Calm     62% 0 mm 308.0 W/m2
08:53 11.9 °C 4.4 °C 1025.3 hPa Calm     60% 0 mm 332.0 W/m2
09:03 12.2 °C 4.2 °C 1025.3 hPa Calm     58% 0 mm 359.0 W/m2
09:16 12.5 °C 4.2 °C 1025.3 hPa SSW 1.4 km/h 9.7 km/h 57% 0 mm 396.0 W/m2
18:30 12.7 °C -1.3 °C 1021.9 hPa Calm     38% 0 mm 0.0 W/m2
18:57 11.9 °C -1.3 °C 1021.9 hPa Calm     40% 0 mm 0.0 W/m2
19:07 11.5 °C -2 °C 1022.2 hPa Calm     39% 0 mm 0.0 W/m2
19:23 11 °C -1.8 °C 1022.2 hPa Calm     41% 0 mm 0.0 W/m2
19:44 10.9 °C -1.5 °C 1022.2 hPa Calm     42% 0 mm 0.0 W/m2
19:54 11.1 °C -1.3 °C 1022.2 hPa Calm     42% 0 mm 0.0 W/m2
20:09 11.7 °C -0.5 °C 1022.6 hPa Calm     43% 0 mm 0.0 W/m2
20:19 11.6 °C -0.6 °C 1022.6 hPa Calm     43% 0 mm 0.0 W/m2
20:35 11.3 °C -0.2 °C 1022.9 hPa Calm     45% 0 mm 0.0 W/m2
20:56 11.7 °C -0.2 °C 1022.9 hPa Calm     44% 0 mm 0.0 W/m2
21:12 11.4 °C -0.1 °C 1023.2 hPa Calm     45% 0 mm 0.0 W/m2
21:28 11.4 °C 0.2 °C 1023.2 hPa Calm     46% 0 mm 0.0 W/m2
21:40 11.4 °C -0.1 °C 1023.2 hPa Calm     45% 0 mm 0.0 W/m2
21:54 11.1 °C -0.4 °C 1022.9 hPa Calm     45% 0 mm 0.0 W/m2
22:02 11.2 °C -0.6 °C 1023.2 hPa Calm     44% 0 mm 0.0 W/m2
22:08 11.1 °C -1 °C 1022.9 hPa Calm     43% 0 mm 0.0 W/m2
22:16 10.8 °C -1.3 °C 1022.9 hPa Calm     43% 0 mm 0.0 W/m2
Canyon Roadhouse, Fishriver Canyon, Namibia
Compliments of Weather Underground - 2 mb